Time,TemperatureF,DewpointF,PressureIn,WindDirection,WindDirectionDegrees,WindSpeedMPH,WindSpeedGustMPH,Humidity,HourlyPrecipIn,Conditions,Clouds,dailyrainin,SoftwareType,DateUTC
2014-09-01 00:52:00,65.0,63.0,29.59,North,-999,0.0,-999.0,94,-99.99,,,-99.99,,2014-09-01 05:52:00,
2014-09-01 01:12:00,65.0,63.0,29.59,North,-999,0.0,-999.0,94,-99.99,,,-99.99,,2014-09-01 06:12:00,
2014-09-01 01:22:00,66.0,64.0,29.59,North,-999,0.0,-999.0,94,-99.99,,,-99.99,,2014-09-01 06:22:00,
2014-09-01 01:52:00,65.0,63.0,29.59,North,-999,0.0,-999.0,94,-99.99,,,-99.99,,2014-09-01 06:52:00,
2014-09-01 03:12:00,65.0,63.0,29.58,North,-999,0.0,-999.0,94,-99.99,,,-99.99,,2014-09-01 08:12:00,
2014-09-01 03:22:00,65.0,63.0,29.58,North,-999,0.0,-999.0,94,-99.99,,,-99.99,,2014-09-01 08:22:00,
2014-09-01 04:12:00,65.0,63.0,29.59,North,-999,0.0,-999.0,93,-99.99,,,-99.99,,2014-09-01 09:12:00,
2014-09-01 04:22:00,65.0,63.0,29.59,North,-999,0.0,-999.0,93,-99.99,,,-99.99,,2014-09-01 09:22:00,
2014-09-01 04:44:00,65.0,63.0,29.60,North,-999,0.0,-999.0,93,-99.99,,,-99.99,,2014-09-01 09:44:00,
2014-09-01 04:54:00,65.0,63.0,29.60,North,-999,0.0,-999.0,94,-99.99,,,-99.99,,2014-09-01 09:54:00,
2014-09-01 05:23:00,64.0,62.0,29.59,North,-999,0.0,-999.0,93,-99.99,,,-99.99,,2014-09-01 10:23:00,
2014-09-01 05:54:00,64.0,62.0,29.59,North,-999,0.0,-999.0,93,-99.99,,,-99.99,,2014-09-01 10:54:00,
2014-09-01 06:13:00,64.0,62.0,29.59,North,-999,0.0,-999.0,94,-99.99,,,-99.99,,2014-09-01 11:13:00,
2014-09-01 06:52:00,64.0,62.0,29.59,North,-999,0.0,-999.0,94,-99.99,,,-99.99,,2014-09-01 11:52:00,
2014-09-01 07:12:00,65.0,63.0,29.59,North,-999,0.0,-999.0,94,-99.99,,,-99.99,,2014-09-01 12:12:00,
2014-09-01 07:53:00,65.0,63.0,29.57,North,-999,0.0,-999.0,94,-99.99,,,-99.99,,2014-09-01 12:53:00,
2014-09-01 08:12:00,65.0,63.0,29.58,North,-999,0.0,-999.0,94,-99.99,,,-99.99,,2014-09-01 13:12:00,
2014-09-01 08:52:00,65.0,63.0,29.60,North,-999,0.0,-999.0,93,-99.99,,,-99.99,,2014-09-01 13:52:00,
2014-09-01 09:22:00,65.0,63.0,29.61,North,-999,0.0,-999.0,93,-99.99,,,-99.99,,2014-09-01 14:22:00,
2014-09-01 09:52:00,66.0,63.0,29.62,North,-999,0.0,-999.0,91,-99.99,,,-99.99,,2014-09-01 14:52:00,
2014-09-01 10:12:00,66.0,63.0,29.63,North,-999,0.0,-999.0,90,-99.99,,,-99.99,,2014-09-01 15:12:00,
2014-09-01 10:54:00,67.0,64.0,29.66,North,-999,0.0,-999.0,89,-99.99,,,-99.99,,2014-09-01 15:54:00,
2014-09-01 11:13:00,67.0,63.0,29.65,North,-999,0.0,-999.0,88,-99.99,,,-99.99,,2014-09-01 16:13:00,
2014-09-01 11:24:00,68.0,64.0,29.66,North,-999,0.0,-999.0,88,-99.99,,,-99.99,,2014-09-01 16:24:00,
2014-09-01 11:54:00,69.0,64.0,29.67,North,-999,0.0,-999.0,83,-99.99,,,-99.99,,2014-09-01 16:54:00,
2014-09-01 12:13:00,71.0,63.0,29.67,North,-999,0.0,-999.0,76,-99.99,,,-99.99,,2014-09-01 17:13:00,
2014-09-01 12:23:00,71.0,62.0,29.68,North,-999,0.0,-999.0,74,-99.99,,,-99.99,,2014-09-01 17:23:00,
2014-09-01 13:13:00,73.0,61.0,29.68,North,-999,0.0,-999.0,66,-99.99,,,-99.99,,2014-09-01 18:13:00,
2014-09-01 13:52:00,74.0,61.0,29.70,North,-999,0.0,-999.0,64,-99.99,,,-99.99,,2014-09-01 18:52:00,
2014-09-01 14:22:00,74.0,58.0,29.70,North,-999,0.0,-999.0,58,-99.99,,,-99.99,,2014-09-01 19:22:00,
2014-09-01 14:42:00,73.0,61.0,29.70,North,-999,0.0,-999.0,65,-99.99,,,-99.99,,2014-09-01 19:42:00,
2014-09-01 15:12:00,75.0,59.0,29.70,North,-999,0.0,-999.0,58,-99.99,,,-99.99,,2014-09-01 20:12:00,
2014-09-01 15:23:00,76.0,60.0,29.70,North,-999,0.0,-999.0,58,-99.99,,,-99.99,,2014-09-01 20:23:00,
2014-09-01 15:52:00,75.0,56.0,29.71,North,-999,0.0,-999.0,52,-99.99,,,-99.99,,2014-09-01 20:52:00,